createdAt,value
2022-10-02T00:04:54.921Z,11.50
2022-10-02T00:10:10.545Z,11.50
2022-10-02T00:20:54.953Z,11.50
2022-10-02T00:26:19.774Z,11.60
2022-10-02T00:31:48.476Z,11.50
2022-10-02T00:43:25.851Z,11.50
2022-10-02T00:49:08.491Z,11.60
2022-10-02T00:54:37.014Z,11.60
2022-10-02T01:00:22.145Z,11.50
2022-10-02T01:11:15.691Z,11.60
2022-10-02T01:16:28.034Z,11.60
2022-10-02T01:21:44.320Z,11.50
2022-10-02T01:26:54.075Z,11.50
2022-10-02T01:32:04.025Z,11.60
2022-10-02T01:37:14.117Z,11.50
2022-10-02T01:42:25.594Z,11.60
2022-10-02T01:47:39.218Z,11.50
2022-10-02T01:53:32.057Z,11.60
2022-10-02T01:59:32.754Z,11.50
2022-10-02T02:04:53.502Z,11.50
2022-10-02T02:10:01.665Z,11.50
2022-10-02T02:15:36.705Z,11.50
2022-10-02T02:20:50.920Z,11.50
2022-10-02T02:26:15.350Z,11.50
2022-10-02T02:31:47.709Z,11.50
2022-10-02T02:37:04.731Z,11.50
2022-10-02T02:42:17.694Z,11.50
2022-10-02T02:47:28.670Z,11.50
2022-10-02T02:52:42.409Z,11.50
2022-10-02T02:57:56.370Z,11.50
2022-10-02T03:03:02.582Z,11.50
2022-10-02T03:08:31.789Z,11.50
2022-10-02T03:14:00.423Z,11.50
2022-10-02T03:19:17.570Z,11.60
2022-10-02T03:24:56.926Z,11.50
2022-10-02T03:30:18.588Z,11.60
2022-10-02T03:35:31.403Z,11.60
2022-10-02T03:40:42.734Z,11.60
2022-10-02T03:45:56.226Z,11.60
2022-10-02T03:51:05.471Z,11.60
2022-10-02T03:56:39.632Z,11.60
2022-10-02T04:01:49.230Z,11.50
2022-10-02T04:07:06.530Z,11.60
2022-10-02T04:12:19.335Z,11.50
2022-10-02T04:17:34.969Z,11.50
2022-10-02T04:23:03.006Z,11.50
2022-10-02T04:28:18.917Z,11.50
2022-10-02T04:33:28.113Z,11.40
2022-10-02T04:39:05.250Z,11.30
2022-10-02T04:44:43.051Z,11.30
2022-10-02T04:50:12.809Z,11.10
2022-10-02T04:55:48.683Z,11.10
2022-10-02T05:01:21.103Z,11.20
2022-10-02T05:12:18.666Z,11.30
2022-10-02T05:17:41.433Z,11.30
2022-10-02T05:22:59.853Z,11.30
2022-10-02T05:28:25.030Z,11.30
2022-10-02T05:33:53.310Z,11.20
2022-10-02T05:39:08.525Z,11.20
2022-10-02T05:44:26.884Z,11.20
2022-10-02T05:55:23.135Z,11.20
2022-10-02T06:00:50.609Z,11.20
2022-10-02T06:06:04.308Z,11.30
2022-10-02T06:11:47.918Z,11.50
2022-10-02T06:17:13.269Z,11.60
2022-10-02T06:22:35.118Z,11.80
2022-10-02T06:27:51.679Z,12.00
2022-10-02T06:33:03.098Z,12.30
2022-10-02T06:38:35.729Z,12.40
2022-10-02T06:44:17.128Z,12.50
2022-10-02T06:49:27.894Z,12.50
2022-10-02T06:54:58.389Z,12.40
2022-10-02T07:00:17.465Z,12.50
2022-10-02T07:05:58.361Z,12.40
2022-10-02T07:11:12.432Z,12.60
2022-10-02T07:16:39.256Z,13.30
2022-10-02T07:22:00.196Z,13.70
2022-10-02T07:27:46.087Z,13.80
2022-10-02T07:33:12.721Z,13.70
2022-10-02T07:38:31.498Z,13.70
2022-10-02T07:43:45.220Z,13.60
2022-10-02T07:49:27.866Z,13.50
2022-10-02T07:55:01.753Z,13.30
2022-10-02T08:00:42.398Z,13.30
2022-10-02T08:05:56.465Z,13.40
2022-10-02T08:11:14.888Z,13.40
2022-10-02T08:16:23.611Z,13.30
2022-10-02T08:21:33.072Z,13.40
2022-10-02T08:26:43.461Z,13.50
2022-10-02T08:31:52.199Z,13.60
2022-10-02T08:37:31.962Z,13.60
2022-10-02T08:42:58.359Z,13.60
2022-10-02T08:48:09.773Z,13.50
2022-10-02T08:53:39.518Z,13.60
2022-10-02T08:59:26.085Z,13.70
2022-10-02T09:04:43.417Z,13.90
2022-10-02T09:15:54.682Z,14.70
2022-10-02T09:21:32.034Z,14.90
2022-10-02T09:27:08.045Z,14.80
2022-10-02T09:32:57.891Z,14.60
2022-10-02T09:38:42.478Z,14.20
2022-10-02T09:44:15.116Z,13.90
2022-10-02T09:49:44.137Z,13.80
2022-10-02T09:55:26.027Z,13.90
2022-10-02T10:00:42.940Z,14.40
2022-10-02T10:06:02.811Z,14.70
2022-10-02T10:11:30.639Z,14.50
2022-10-02T10:17:03.247Z,14.10
2022-10-02T10:22:14.298Z,13.80
2022-10-02T10:27:51.112Z,13.70
2022-10-02T10:33:01.440Z,13.70
2022-10-02T10:38:36.856Z,13.80
2022-10-02T10:44:05.182Z,13.90
2022-10-02T10:49:17.140Z,14.10
2022-10-02T10:54:38.798Z,14.20
2022-10-02T10:59:54.616Z,14.60
2022-10-02T11:05:19.006Z,14.70
2022-10-02T11:10:44.805Z,14.70
2022-10-02T11:16:00.572Z,14.60
2022-10-02T11:21:27.067Z,14.50
2022-10-02T11:26:48.266Z,14.70
2022-10-02T11:32:09.061Z,14.90
2022-10-02T11:37:30.777Z,14.90
2022-10-02T11:42:40.825Z,14.80
2022-10-02T11:48:09.692Z,14.90
2022-10-02T11:53:23.344Z,15.00
2022-10-02T11:59:07.191Z,15.20
2022-10-02T12:04:23.547Z,15.50
2022-10-02T12:09:50.997Z,16.30
2022-10-02T12:15:07.745Z,16.20
2022-10-02T12:20:48.624Z,16.20
2022-10-02T12:26:26.035Z,16.80
2022-10-02T12:31:44.654Z,16.40
2022-10-02T12:37:32.726Z,16.00
2022-10-02T12:42:52.821Z,15.80
2022-10-02T12:48:12.710Z,15.50
2022-10-02T12:53:20.994Z,15.30
2022-10-02T12:58:53.129Z,15.20
2022-10-02T13:04:29.441Z,15.20
2022-10-02T13:10:12.914Z,15.30
2022-10-02T13:15:53.149Z,15.60
2022-10-02T13:21:23.332Z,15.80
2022-10-02T13:26:42.066Z,15.70
2022-10-02T13:31:46.587Z,15.80
2022-10-02T13:36:56.251Z,16.10
2022-10-02T13:42:23.942Z,16.30
2022-10-02T13:47:39.596Z,16.30
2022-10-02T13:52:57.414Z,16.00
2022-10-02T13:58:25.557Z,16.00
2022-10-02T14:03:43.362Z,16.10
2022-10-02T14:08:53.286Z,16.00
2022-10-02T14:14:05.328Z,16.10
2022-10-02T14:19:35.888Z,16.20
2022-10-02T14:25:03.619Z,16.20
2022-10-02T14:30:17.671Z,16.20
2022-10-02T14:35:42.159Z,15.80
2022-10-02T14:40:55.119Z,15.60
2022-10-02T14:46:17.009Z,15.40
2022-10-02T14:51:37.842Z,15.40
2022-10-02T14:57:07.520Z,15.50
2022-10-02T15:02:30.654Z,15.60
2022-10-02T15:07:38.892Z,15.40
2022-10-02T15:13:02.460Z,15.30
2022-10-02T15:18:26.655Z,15.10
2022-10-02T15:23:44.449Z,14.80
2022-10-02T15:29:25.287Z,14.40
2022-10-02T15:34:37.105Z,14.20
2022-10-02T15:39:48.000Z,13.90
2022-10-02T15:45:15.651Z,13.60
2022-10-02T15:50:42.474Z,13.20
2022-10-02T15:55:53.139Z,12.80
2022-10-02T16:01:08.279Z,12.60
2022-10-02T16:06:32.709Z,12.40
2022-10-02T16:11:52.750Z,12.20
2022-10-02T16:17:16.064Z,12.10
2022-10-02T16:22:32.903Z,12.00
2022-10-02T16:27:52.813Z,12.00
2022-10-02T16:33:04.161Z,11.90
2022-10-02T16:38:18.443Z,11.80
2022-10-02T16:43:53.577Z,11.70
2022-10-02T16:49:01.831Z,11.60
2022-10-02T16:54:35.819Z,11.50
2022-10-02T17:00:09.285Z,11.50
2022-10-02T17:05:48.261Z,11.40
2022-10-02T17:11:17.753Z,11.30
2022-10-02T17:16:27.142Z,11.10
2022-10-02T17:21:45.315Z,11.10
2022-10-02T17:26:56.235Z,11.00
2022-10-02T17:32:02.070Z,10.90
2022-10-02T17:37:16.493Z,10.80
2022-10-02T17:42:43.878Z,10.70
2022-10-02T17:48:07.042Z,10.70
2022-10-02T17:53:44.885Z,10.60
2022-10-02T17:58:58.948Z,10.50
2022-10-02T18:10:05.012Z,10.50
2022-10-02T18:15:40.006Z,10.40
2022-10-02T18:21:00.754Z,10.40
2022-10-02T18:26:29.807Z,10.30
2022-10-02T18:31:55.838Z,10.30
2022-10-02T18:37:09.513Z,10.30
2022-10-02T18:42:20.463Z,10.20
2022-10-02T18:47:40.463Z,10.20
2022-10-02T18:52:52.458Z,10.10
2022-10-02T18:58:06.404Z,10.10
2022-10-02T19:03:47.639Z,10.10
2022-10-02T19:08:58.766Z,10.10
2022-10-02T19:14:18.862Z,10.00
2022-10-02T19:19:25.282Z,10.00
2022-10-02T19:24:35.131Z,10.00
2022-10-02T19:29:56.482Z,9.90
2022-10-02T19:35:22.865Z,9.90
2022-10-02T19:40:32.200Z,9.80
2022-10-02T19:45:40.922Z,9.80
2022-10-02T19:50:51.968Z,9.80
2022-10-02T19:56:06.144Z,9.70
2022-10-02T20:01:23.201Z,9.70
2022-10-02T20:06:35.208Z,9.70
2022-10-02T20:11:46.233Z,9.70
2022-10-02T20:17:09.702Z,9.70
2022-10-02T20:22:27.510Z,9.70
2022-10-02T20:27:48.183Z,9.70
2022-10-02T20:32:56.766Z,9.70
2022-10-02T20:38:04.923Z,9.70
2022-10-02T20:43:18.540Z,9.70
2022-10-02T20:49:03.046Z,9.60
2022-10-02T20:53:53.994Z,9.60
2022-10-02T20:59:08.466Z,9.60
2022-10-02T21:04:22.384Z,9.50
2022-10-02T21:09:46.774Z,9.40
2022-10-02T21:15:17.227Z,9.40
2022-10-02T21:20:49.810Z,9.30
2022-10-02T21:25:54.905Z,9.30
2022-10-02T21:31:14.857Z,9.30
2022-10-02T21:36:26.353Z,9.30
2022-10-02T21:41:40.427Z,9.30
2022-10-02T21:47:07.335Z,9.30
2022-10-02T21:52:30.642Z,9.40
2022-10-02T21:57:56.374Z,9.50
2022-10-02T22:03:22.550Z,9.50
2022-10-02T22:08:36.568Z,9.50
2022-10-02T22:13:46.264Z,9.50
2022-10-02T22:18:56.421Z,9.50
2022-10-02T22:24:16.633Z,9.40
2022-10-02T22:29:24.795Z,9.40
2022-10-02T22:34:32.975Z,9.50
2022-10-02T22:39:47.050Z,9.50
2022-10-02T22:44:58.170Z,9.50
2022-10-02T22:50:24.048Z,9.50
2022-10-02T22:55:34.119Z,9.40
2022-10-02T23:01:11.408Z,9.40
2022-10-02T23:06:46.503Z,9.40
2022-10-02T23:12:18.552Z,9.40
2022-10-02T23:17:46.112Z,9.50
2022-10-02T23:23:10.346Z,9.60
2022-10-02T23:28:30.197Z,9.60
2022-10-02T23:33:53.186Z,9.70
2022-10-02T23:39:12.964Z,9.70
2022-10-02T23:44:26.822Z,9.80
2022-10-02T23:49:35.068Z,9.80
2022-10-02T23:54:48.773Z,9.80
